createdAt,value
2022-10-05T00:01:28.751Z,3.27
2022-10-05T00:04:03.562Z,3.50
2022-10-05T00:06:31.764Z,3.40
2022-10-05T00:09:02.175Z,3.37
2022-10-05T00:11:30.208Z,3.43
2022-10-05T00:13:59.430Z,3.60
2022-10-05T00:16:30.587Z,3.37
2022-10-05T00:19:01.207Z,3.13
2022-10-05T00:21:30.413Z,4.00
2022-10-05T00:23:59.757Z,3.13
2022-10-05T00:26:33.333Z,2.87
2022-10-05T00:29:03.120Z,3.43
2022-10-05T00:31:37.054Z,3.40
2022-10-05T00:34:05.175Z,3.07
2022-10-05T00:36:34.503Z,3.23
2022-10-05T00:39:03.498Z,3.57
2022-10-05T00:41:39.888Z,3.30
2022-10-05T00:44:26.176Z,3.50
2022-10-05T00:47:02.656Z,3.67
2022-10-05T00:49:50.699Z,3.80
2022-10-05T00:52:32.452Z,3.60
2022-10-05T00:55:09.650Z,3.37
2022-10-05T00:57:50.120Z,3.83
2022-10-05T01:00:21.365Z,3.73
2022-10-05T01:02:59.344Z,4.20
2022-10-05T01:05:42.348Z,4.30
2022-10-05T01:08:20.202Z,3.87
2022-10-05T01:11:00.188Z,3.90
2022-10-05T01:13:38.856Z,3.90
2022-10-05T01:16:11.639Z,3.73
2022-10-05T01:18:52.408Z,3.70
2022-10-05T01:21:22.958Z,4.03
2022-10-05T01:24:16.903Z,4.00
2022-10-05T01:27:07.529Z,3.83
2022-10-05T01:29:42.165Z,3.87
2022-10-05T01:32:18.742Z,4.00
2022-10-05T01:34:54.976Z,4.27
2022-10-05T01:37:29.965Z,4.13
2022-10-05T01:40:06.464Z,3.23
2022-10-05T01:42:44.737Z,3.43
2022-10-05T01:45:24.086Z,3.60
2022-10-05T01:47:59.393Z,3.57
2022-10-05T01:50:38.085Z,3.77
2022-10-05T01:53:14.263Z,3.97
2022-10-05T01:55:50.638Z,4.30
2022-10-05T01:58:25.578Z,3.93
2022-10-05T02:01:02.872Z,4.03
2022-10-05T02:03:38.154Z,3.70
2022-10-05T02:06:13.580Z,4.10
2022-10-05T02:08:48.054Z,4.00
2022-10-05T02:11:16.474Z,4.10
2022-10-05T02:13:48.787Z,3.50
2022-10-05T02:16:25.889Z,3.73
2022-10-05T02:18:59.345Z,3.50
2022-10-05T02:21:29.150Z,3.87
2022-10-05T02:24:03.097Z,3.67
2022-10-05T02:26:34.027Z,3.97
2022-10-05T02:29:05.425Z,3.90
2022-10-05T02:31:39.452Z,4.00
2022-10-05T02:34:24.813Z,4.03
2022-10-05T02:37:00.695Z,4.23
2022-10-05T02:39:38.222Z,4.30
2022-10-05T02:42:14.556Z,4.20
2022-10-05T02:44:50.098Z,3.90
2022-10-05T02:47:29.756Z,4.30
2022-10-05T02:50:04.418Z,4.13
2022-10-05T02:52:47.538Z,4.23
2022-10-05T02:55:20.797Z,4.50
2022-10-05T02:57:54.893Z,4.30
2022-10-05T03:00:45.762Z,4.57
2022-10-05T03:03:25.156Z,4.40
2022-10-05T03:05:59.965Z,4.30
2022-10-05T03:08:34.334Z,4.30
2022-10-05T03:11:13.016Z,4.67
2022-10-05T03:13:46.837Z,4.33
2022-10-05T03:16:48.131Z,5.20
2022-10-05T03:19:30.559Z,4.73
2022-10-05T03:22:04.007Z,5.20
2022-10-05T03:24:48.648Z,5.07
2022-10-05T03:27:31.263Z,3.80
2022-10-05T03:30:06.204Z,4.17
2022-10-05T03:32:45.723Z,3.87
2022-10-05T03:35:19.298Z,4.03
2022-10-05T03:37:53.452Z,3.93
2022-10-05T03:40:30.787Z,3.70
2022-10-05T03:43:17.908Z,3.80
2022-10-05T03:45:55.941Z,3.80
2022-10-05T03:48:31.126Z,4.17
2022-10-05T03:51:08.347Z,4.00
2022-10-05T03:53:43.566Z,3.57
2022-10-05T03:56:15.893Z,3.97
2022-10-05T03:58:51.453Z,4.10
2022-10-05T04:01:24.439Z,3.97
2022-10-05T04:03:58.298Z,3.80
2022-10-05T04:06:31.831Z,4.00
2022-10-05T04:09:04.511Z,4.33
2022-10-05T04:11:38.278Z,3.83
2022-10-05T04:14:11.643Z,3.80
2022-10-05T04:16:45.072Z,4.10
2022-10-05T04:19:20.459Z,4.00
2022-10-05T04:21:53.126Z,3.80
2022-10-05T04:24:28.440Z,3.60
2022-10-05T04:26:59.913Z,4.10
2022-10-05T04:29:36.166Z,4.47
2022-10-05T04:32:28.163Z,4.73
2022-10-05T04:35:17.203Z,4.10
2022-10-05T04:37:53.946Z,4.60
2022-10-05T04:40:40.124Z,4.60
2022-10-05T04:43:16.454Z,4.87
2022-10-05T04:46:02.293Z,4.13
2022-10-05T04:48:51.014Z,4.50
2022-10-05T04:51:35.548Z,4.47
2022-10-05T04:54:15.432Z,5.57
2022-10-05T04:56:49.202Z,4.93
2022-10-05T04:59:42.352Z,4.40
2022-10-05T05:02:20.585Z,5.47
2022-10-05T05:05:28.702Z,4.57
2022-10-05T05:08:07.005Z,4.30
2022-10-05T05:10:55.867Z,4.50
2022-10-05T05:13:40.343Z,4.70
2022-10-05T05:16:13.849Z,4.10
2022-10-05T05:19:16.379Z,4.10
2022-10-05T05:21:51.107Z,4.30
2022-10-05T05:24:26.260Z,4.70
2022-10-05T05:27:06.221Z,4.67
2022-10-05T05:29:45.914Z,4.57
2022-10-05T05:32:21.920Z,4.80
2022-10-05T05:35:07.237Z,4.90
2022-10-05T05:37:43.948Z,4.33
2022-10-05T05:40:17.990Z,5.13
2022-10-05T05:42:57.441Z,4.47
2022-10-05T05:45:36.232Z,4.03
2022-10-05T05:48:16.621Z,4.40
2022-10-05T05:50:55.448Z,4.90
2022-10-05T05:53:28.876Z,5.33
2022-10-05T05:56:03.747Z,4.00
2022-10-05T05:58:41.175Z,3.80
2022-10-05T06:01:31.657Z,3.90
2022-10-05T06:04:05.128Z,3.83
2022-10-05T06:06:37.591Z,3.90
2022-10-05T06:09:15.941Z,3.60
2022-10-05T06:11:49.314Z,3.77
2022-10-05T06:14:24.615Z,3.83
2022-10-05T06:16:59.324Z,3.30
2022-10-05T06:19:30.146Z,4.00
2022-10-05T06:22:03.059Z,3.73
2022-10-05T06:24:38.662Z,3.33
2022-10-05T06:27:38.790Z,3.07
2022-10-05T06:30:13.979Z,3.60
2022-10-05T06:33:08.003Z,3.20
2022-10-05T06:35:51.133Z,3.20
2022-10-05T06:38:35.135Z,3.27
2022-10-05T06:41:16.687Z,3.27
2022-10-05T06:43:54.612Z,3.13
2022-10-05T06:46:30.766Z,3.53
2022-10-05T06:49:13.220Z,3.50
2022-10-05T06:51:51.215Z,3.47
2022-10-05T06:54:35.856Z,3.13
2022-10-05T06:57:12.093Z,3.60
2022-10-05T06:59:49.752Z,2.63
2022-10-05T07:02:27.322Z,3.37
2022-10-05T07:05:14.067Z,2.67
2022-10-05T07:07:48.455Z,3.07
2022-10-05T07:10:29.604Z,2.77
2022-10-05T07:13:14.805Z,2.80
2022-10-05T07:15:51.113Z,3.10
2022-10-05T07:18:36.325Z,3.03
2022-10-05T07:21:11.426Z,2.87
2022-10-05T07:23:52.214Z,2.83
2022-10-05T07:26:28.087Z,3.13
2022-10-05T07:29:16.891Z,2.67
2022-10-05T07:31:51.392Z,3.30
2022-10-05T07:34:33.153Z,2.90
2022-10-05T07:37:23.035Z,2.50
2022-10-05T07:40:01.683Z,2.67
2022-10-05T07:42:50.716Z,2.73
2022-10-05T07:45:29.263Z,2.40
2022-10-05T07:47:58.646Z,2.50
2022-10-05T07:50:35.806Z,2.60
2022-10-05T07:53:08.186Z,2.30
2022-10-05T07:55:41.962Z,2.50
2022-10-05T07:58:18.746Z,2.78
2022-10-05T08:01:00.686Z,2.43
2022-10-05T08:03:34.610Z,2.30
2022-10-05T08:06:06.002Z,2.50
2022-10-05T08:08:45.077Z,2.53
2022-10-05T08:11:18.236Z,2.47
2022-10-05T08:13:53.021Z,2.13
2022-10-05T08:16:23.430Z,2.42
2022-10-05T08:18:58.178Z,2.30
2022-10-05T08:21:37.531Z,2.40
2022-10-05T08:24:13.909Z,2.60
2022-10-05T08:26:50.876Z,2.33
2022-10-05T08:29:28.252Z,2.38
2022-10-05T08:32:01.357Z,2.53
2022-10-05T08:34:36.591Z,2.08
2022-10-05T08:37:09.983Z,3.28
2022-10-05T08:39:41.479Z,2.38
2022-10-05T08:42:47.843Z,2.20
2022-10-05T08:45:53.091Z,2.90
2022-10-05T08:48:51.346Z,2.47
2022-10-05T08:51:38.578Z,2.65
2022-10-05T08:54:39.456Z,2.60
2022-10-05T08:57:33.758Z,2.47
2022-10-05T09:00:11.923Z,2.63
2022-10-05T09:03:08.357Z,3.45
2022-10-05T09:05:58.784Z,2.50
2022-10-05T09:08:53.875Z,2.28
2022-10-05T09:11:27.267Z,2.30
2022-10-05T09:14:27.032Z,2.63
2022-10-05T09:17:14.116Z,3.05
2022-10-05T09:20:01.034Z,2.35
2022-10-05T09:23:07.556Z,2.20
2022-10-05T09:25:44.189Z,2.42
2022-10-05T09:28:24.505Z,2.17
2022-10-05T09:31:19.268Z,2.22
2022-10-05T09:34:13.395Z,1.63
2022-10-05T09:37:31.130Z,1.60
2022-10-05T09:40:48.026Z,1.90
2022-10-05T09:43:56.954Z,2.03
2022-10-05T09:47:02.019Z,1.70
2022-10-05T09:50:07.066Z,1.73
2022-10-05T09:52:57.393Z,1.70
2022-10-05T09:55:55.556Z,1.70
2022-10-05T09:59:17.380Z,1.48
2022-10-05T10:02:05.641Z,1.58
2022-10-05T10:05:05.826Z,1.50
2022-10-05T10:08:13.419Z,1.52
2022-10-05T10:11:16.580Z,1.63
2022-10-05T10:14:03.937Z,1.35
2022-10-05T10:16:49.720Z,1.45
2022-10-05T10:19:48.264Z,1.60
2022-10-05T10:22:39.692Z,1.80
2022-10-05T10:25:37.045Z,1.85
2022-10-05T10:28:25.623Z,1.60
2022-10-05T10:31:12.844Z,1.77
2022-10-05T10:33:58.856Z,1.55
2022-10-05T10:36:47.636Z,1.65
2022-10-05T10:39:22.564Z,1.90
2022-10-05T10:42:13.142Z,1.42
2022-10-05T10:45:11.634Z,1.58
2022-10-05T10:47:51.785Z,1.17
2022-10-05T10:51:01.483Z,1.10
2022-10-05T10:54:15.073Z,1.30
2022-10-05T10:57:03.242Z,1.40
2022-10-05T11:00:05.053Z,1.83
2022-10-05T11:03:26.374Z,1.40
2022-10-05T11:06:18.339Z,1.60
2022-10-05T11:09:26.358Z,1.58
2022-10-05T11:13:00.490Z,1.23
2022-10-05T11:16:18.755Z,1.30
2022-10-05T11:19:05.104Z,1.50
2022-10-05T11:21:45.941Z,1.08
2022-10-05T11:24:42.062Z,1.40
2022-10-05T11:27:47.939Z,1.52
2022-10-05T11:30:32.786Z,1.88
2022-10-05T11:33:44.300Z,1.40
2022-10-05T11:36:45.975Z,1.45
2022-10-05T11:39:37.165Z,1.48
2022-10-05T11:42:49.875Z,0.98
2022-10-05T11:45:27.912Z,1.33
2022-10-05T11:48:46.640Z,1.88
2022-10-05T11:51:35.712Z,1.50
2022-10-05T11:54:58.618Z,1.55
2022-10-05T11:57:32.926Z,1.55
2022-10-05T12:00:12.929Z,1.58
2022-10-05T12:03:28.480Z,1.75
2022-10-05T12:06:13.685Z,1.70
2022-10-05T12:08:51.192Z,2.30
2022-10-05T12:11:36.757Z,1.33
2022-10-05T12:14:12.730Z,1.42
2022-10-05T12:16:47.985Z,1.70
2022-10-05T12:19:22.050Z,1.55
2022-10-05T12:21:54.699Z,1.90
2022-10-05T12:24:32.293Z,1.67
2022-10-05T12:27:05.763Z,2.00
2022-10-05T12:29:39.719Z,1.63
2022-10-05T12:32:14.397Z,1.88
2022-10-05T12:35:01.102Z,1.65
2022-10-05T12:37:42.422Z,1.98
2022-10-05T12:40:28.133Z,1.70
2022-10-05T12:43:05.878Z,1.70
2022-10-05T12:45:50.152Z,1.75
2022-10-05T12:48:35.267Z,1.70
2022-10-05T12:51:10.810Z,2.03
2022-10-05T12:53:50.424Z,1.88
2022-10-05T12:56:32.185Z,1.60
2022-10-05T12:59:11.192Z,1.90
2022-10-05T13:01:44.587Z,2.05
2022-10-05T13:04:28.807Z,1.75
2022-10-05T13:07:22.580Z,2.63
2022-10-05T13:10:02.547Z,1.85
2022-10-05T13:12:43.890Z,2.20
2022-10-05T13:15:21.139Z,1.42
2022-10-05T13:18:01.234Z,1.77
2022-10-05T13:20:35.601Z,2.20
2022-10-05T13:23:11.001Z,2.60
2022-10-05T13:25:48.916Z,1.80
2022-10-05T13:28:20.828Z,2.05
2022-10-05T13:30:59.411Z,2.03
2022-10-05T13:33:37.592Z,1.95
2022-10-05T13:36:16.011Z,1.67
2022-10-05T13:38:56.651Z,1.65
2022-10-05T13:41:34.577Z,1.88
2022-10-05T13:44:17.271Z,1.85
2022-10-05T13:46:50.148Z,1.40
2022-10-05T13:49:26.602Z,1.40
2022-10-05T13:52:08.820Z,1.23
2022-10-05T13:54:45.231Z,1.75
2022-10-05T13:57:25.295Z,1.90
2022-10-05T13:59:57.041Z,1.50
2022-10-05T14:02:30.063Z,1.70
2022-10-05T14:05:02.808Z,1.85
2022-10-05T14:07:39.988Z,1.67
2022-10-05T14:10:14.324Z,2.05
2022-10-05T14:12:45.925Z,2.70
2022-10-05T14:15:23.142Z,1.88
2022-10-05T14:17:52.818Z,1.60
2022-10-05T14:20:25.779Z,2.00
2022-10-05T14:23:03.264Z,1.60
2022-10-05T14:25:33.617Z,1.70
2022-10-05T14:28:05.305Z,1.88
2022-10-05T14:30:35.276Z,1.60
2022-10-05T14:33:17.085Z,1.20
2022-10-05T14:35:49.303Z,1.35
2022-10-05T14:38:23.045Z,1.70
2022-10-05T14:41:22.097Z,1.80
2022-10-05T14:43:53.563Z,1.88
2022-10-05T14:46:28.522Z,1.90
2022-10-05T14:49:17.194Z,1.70
2022-10-05T14:51:45.399Z,1.98
2022-10-05T14:54:36.748Z,1.40
2022-10-05T14:57:18.452Z,1.90
2022-10-05T15:00:05.167Z,2.00
2022-10-05T15:02:52.340Z,2.38
2022-10-05T15:05:31.337Z,2.20
2022-10-05T15:08:08.853Z,2.28
2022-10-05T15:10:43.634Z,3.60
2022-10-05T15:13:17.291Z,3.35
2022-10-05T15:15:51.121Z,2.58
2022-10-05T15:18:32.362Z,2.30
2022-10-05T15:21:14.451Z,2.30
2022-10-05T15:23:47.480Z,2.90
2022-10-05T15:26:32.196Z,2.40
2022-10-05T15:29:10.135Z,2.80
2022-10-05T15:31:44.343Z,2.40
2022-10-05T15:34:19.149Z,2.60
2022-10-05T15:36:54.159Z,2.95
2022-10-05T15:39:35.106Z,2.65
2022-10-05T15:42:13.823Z,2.83
2022-10-05T15:45:03.150Z,4.97
2022-10-05T15:47:47.698Z,3.35
2022-10-05T15:50:24.136Z,3.97
2022-10-05T15:52:58.370Z,3.63
2022-10-05T15:55:40.445Z,3.58
2022-10-05T15:58:26.606Z,5.22
2022-10-05T16:01:02.171Z,4.70
2022-10-05T16:03:45.214Z,4.35
2022-10-05T16:06:40.770Z,4.47
2022-10-05T16:09:19.343Z,5.03
2022-10-05T16:12:03.789Z,4.60
2022-10-05T16:14:55.873Z,6.32
2022-10-05T16:17:42.122Z,5.13
2022-10-05T16:20:26.358Z,5.20
2022-10-05T16:22:59.771Z,6.15
2022-10-05T16:25:40.120Z,5.68
2022-10-05T16:28:19.992Z,7.75
2022-10-05T16:30:59.757Z,6.30
2022-10-05T16:33:46.055Z,6.43
2022-10-05T16:36:22.724Z,8.40
2022-10-05T16:38:59.395Z,7.32
2022-10-05T16:41:35.030Z,7.28
2022-10-05T16:44:12.990Z,6.63
2022-10-05T16:46:49.349Z,6.53
2022-10-05T16:49:31.139Z,6.13
2022-10-05T16:52:00.712Z,7.13
2022-10-05T16:54:33.188Z,7.88
2022-10-05T16:57:08.022Z,6.90
2022-10-05T17:00:13.439Z,7.45
2022-10-05T17:02:59.610Z,6.75
2022-10-05T17:05:53.192Z,6.53
2022-10-05T17:08:44.466Z,6.50
2022-10-05T17:11:20.681Z,7.27
2022-10-05T17:14:21.965Z,5.10
2022-10-05T17:17:05.926Z,5.70
2022-10-05T17:19:56.837Z,5.97
2022-10-05T17:22:28.830Z,7.30
2022-10-05T17:25:09.047Z,9.80
2022-10-05T17:27:52.732Z,12.20
2022-10-05T17:30:24.587Z,9.63
2022-10-05T17:33:00.332Z,8.33
2022-10-05T17:35:53.604Z,6.20
2022-10-05T17:38:24.960Z,5.70
2022-10-05T17:41:24.161Z,5.72
2022-10-05T17:44:25.063Z,6.37
2022-10-05T17:46:58.889Z,6.37
2022-10-05T17:50:13.864Z,6.57
2022-10-05T17:53:02.555Z,6.60
2022-10-05T17:56:03.157Z,6.40
2022-10-05T17:59:00.928Z,7.27
2022-10-05T18:01:34.086Z,8.80
2022-10-05T18:04:34.516Z,6.93
2022-10-05T18:07:06.576Z,6.83
2022-10-05T18:09:51.571Z,6.97
2022-10-05T18:12:40.164Z,7.70
2022-10-05T18:15:44.675Z,7.03
2022-10-05T18:18:36.322Z,6.87
2022-10-05T18:21:24.221Z,6.20
2022-10-05T18:24:24.324Z,6.03
2022-10-05T18:27:06.940Z,6.03
2022-10-05T18:30:06.821Z,6.80
2022-10-05T18:32:57.122Z,6.67
2022-10-05T18:35:30.905Z,6.70
2022-10-05T18:38:10.806Z,6.70
2022-10-05T18:40:49.825Z,6.63
2022-10-05T18:43:32.134Z,5.60
2022-10-05T18:46:22.427Z,5.67
2022-10-05T18:49:03.036Z,6.63
2022-10-05T18:51:43.230Z,6.63
2022-10-05T18:54:29.470Z,7.20
2022-10-05T18:56:57.686Z,6.70
2022-10-05T18:59:41.338Z,6.83
2022-10-05T19:02:21.080Z,7.67
2022-10-05T19:05:01.612Z,7.27
2022-10-05T19:07:42.865Z,5.97
2022-10-05T19:10:25.454Z,5.80
2022-10-05T19:13:08.644Z,5.07
2022-10-05T19:15:47.840Z,5.17
2022-10-05T19:18:44.910Z,5.20
2022-10-05T19:21:26.032Z,5.30
2022-10-05T19:24:13.677Z,5.47
2022-10-05T19:26:58.767Z,5.87
2022-10-05T19:29:44.033Z,5.30
2022-10-05T19:32:23.976Z,4.93
2022-10-05T19:35:07.165Z,5.73
2022-10-05T19:37:45.764Z,4.70
2022-10-05T19:40:24.518Z,5.20
2022-10-05T19:43:14.367Z,5.00
2022-10-05T19:45:48.578Z,5.07
2022-10-05T19:48:29.757Z,4.90
2022-10-05T19:50:59.990Z,5.07
2022-10-05T19:53:31.676Z,5.20
2022-10-05T19:56:20.229Z,5.13
2022-10-05T19:58:52.007Z,4.80
2022-10-05T20:01:26.066Z,5.27
2022-10-05T20:03:58.092Z,4.37
2022-10-05T20:06:27.258Z,4.97
2022-10-05T20:09:00.781Z,4.47
2022-10-05T20:11:31.936Z,4.00
2022-10-05T20:14:20.219Z,4.03
2022-10-05T20:17:05.887Z,4.33
2022-10-05T20:19:57.412Z,4.20
2022-10-05T20:22:30.848Z,3.80
2022-10-05T20:25:01.955Z,3.70
2022-10-05T20:27:43.426Z,3.83
2022-10-05T20:30:14.155Z,3.57
2022-10-05T20:32:42.267Z,3.60
2022-10-05T20:35:12.261Z,3.57
2022-10-05T20:37:40.395Z,4.17
2022-10-05T20:40:10.419Z,3.20
2022-10-05T20:42:38.689Z,4.37
2022-10-05T20:45:07.837Z,3.40
2022-10-05T20:47:37.747Z,4.57
2022-10-05T20:50:09.093Z,4.20
2022-10-05T20:52:39.223Z,3.40
2022-10-05T20:55:09.006Z,3.50
2022-10-05T20:57:41.724Z,3.40
2022-10-05T21:00:11.045Z,3.17
2022-10-05T21:02:39.570Z,2.93
2022-10-05T21:05:08.685Z,2.60
2022-10-05T21:07:38.189Z,3.57
2022-10-05T21:10:07.129Z,3.10
2022-10-05T21:12:35.108Z,2.80
2022-10-05T21:15:04.785Z,2.60
2022-10-05T21:17:34.654Z,2.80
2022-10-05T21:20:02.976Z,2.90
2022-10-05T21:22:30.959Z,2.80
2022-10-05T21:25:00.418Z,3.17
2022-10-05T21:27:28.515Z,2.83
2022-10-05T21:29:56.538Z,3.00
2022-10-05T21:32:24.491Z,3.07
2022-10-05T21:34:52.478Z,2.90
2022-10-05T21:37:20.561Z,3.00
2022-10-05T21:39:48.534Z,3.50
2022-10-05T21:42:17.886Z,3.33
2022-10-05T21:44:46.092Z,3.50
2022-10-05T21:47:14.158Z,3.30
2022-10-05T21:49:42.853Z,3.30
2022-10-05T21:52:10.837Z,3.03
2022-10-05T21:54:38.851Z,3.60
2022-10-05T21:57:07.424Z,3.63
2022-10-05T21:59:37.044Z,3.10
2022-10-05T22:02:05.158Z,3.57
2022-10-05T22:04:33.134Z,3.70
2022-10-05T22:07:01.253Z,3.70
2022-10-05T22:09:29.321Z,3.80
2022-10-05T22:11:57.486Z,3.77
2022-10-05T22:14:25.511Z,3.73
2022-10-05T22:16:56.221Z,3.73
2022-10-05T22:19:24.372Z,3.70
2022-10-05T22:21:52.436Z,4.20
2022-10-05T22:24:21.451Z,4.30
2022-10-05T22:26:51.827Z,4.10
2022-10-05T22:29:21.380Z,4.33
2022-10-05T22:31:49.722Z,4.70
2022-10-05T22:34:22.213Z,3.83
2022-10-05T22:36:50.796Z,4.50
2022-10-05T22:39:18.883Z,4.10
2022-10-05T22:41:47.359Z,4.17
2022-10-05T22:44:15.410Z,4.47
2022-10-05T22:46:43.565Z,3.80
2022-10-05T22:49:11.968Z,4.50
2022-10-05T22:51:41.554Z,3.33
2022-10-05T22:54:09.552Z,3.43
2022-10-05T22:56:37.662Z,3.23
2022-10-05T22:59:05.741Z,3.73
2022-10-05T23:01:33.931Z,3.47
2022-10-05T23:04:02.981Z,4.00
2022-10-05T23:06:31.949Z,3.60
2022-10-05T23:09:01.518Z,4.10
2022-10-05T23:11:30.298Z,3.53
2022-10-05T23:14:00.523Z,3.70
2022-10-05T23:16:29.795Z,3.80
2022-10-05T23:18:58.483Z,4.07
2022-10-05T23:21:29.596Z,4.97
2022-10-05T23:23:57.806Z,5.13
2022-10-05T23:26:28.092Z,5.17
2022-10-05T23:28:56.497Z,5.37
2022-10-05T23:31:26.630Z,4.17
2022-10-05T23:33:55.178Z,4.77
2022-10-05T23:36:24.961Z,4.50
2022-10-05T23:38:53.896Z,4.87
2022-10-05T23:41:22.441Z,4.30
2022-10-05T23:43:52.248Z,4.60
2022-10-05T23:46:20.243Z,5.20
2022-10-05T23:48:50.391Z,4.67
2022-10-05T23:51:18.776Z,5.20
2022-10-05T23:53:46.705Z,5.13
2022-10-05T23:56:14.677Z,4.83
2022-10-05T23:58:42.783Z,5.13
